sensor_id;sensor_type;location;lat;lon;timestamp;pressure;altitude;pressure_sealevel;temperature;humidity
33697;BME280;20031;43.416;23.232;2023-05-21T00:01:02;99966.75;;;15.38;85.23
33697;BME280;20031;43.416;23.232;2023-05-21T00:03:30;99970.38;;;15.37;85.16
33697;BME280;20031;43.416;23.232;2023-05-21T00:05:56;99961.06;;;15.34;85.09
33697;BME280;20031;43.416;23.232;2023-05-21T00:08:21;99963.91;;;15.33;85.24
33697;BME280;20031;43.416;23.232;2023-05-21T00:10:47;99967.50;;;15.32;85.12
33697;BME280;20031;43.416;23.232;2023-05-21T00:13:13;99962.66;;;15.29;84.84
33697;BME280;20031;43.416;23.232;2023-05-21T00:15:38;99963.84;;;15.27;84.69
33697;BME280;20031;43.416;23.232;2023-05-21T00:18:04;99959.81;;;15.24;85.05
33697;BME280;20031;43.416;23.232;2023-05-21T00:20:30;99964.41;;;15.22;85.04
33697;BME280;20031;43.416;23.232;2023-05-21T00:22:58;99953.00;;;15.15;84.60
33697;BME280;20031;43.416;23.232;2023-05-21T00:25:27;99960.28;;;15.13;84.69
33697;BME280;20031;43.416;23.232;2023-05-21T00:27:53;99955.16;;;15.05;85.19
33697;BME280;20031;43.416;23.232;2023-05-21T00:30:19;99951.13;;;15.03;85.13
33697;BME280;20031;43.416;23.232;2023-05-21T00:32:44;99957.16;;;15.03;85.19
33697;BME280;20031;43.416;23.232;2023-05-21T00:35:10;99946.47;;;15.05;85.58
33697;BME280;20031;43.416;23.232;2023-05-21T00:37:36;99945.50;;;15.06;85.10
33697;BME280;20031;43.416;23.232;2023-05-21T00:40:03;99939.59;;;15.04;85.47
33697;BME280;20031;43.416;23.232;2023-05-21T00:42:35;99940.63;;;15.03;85.44
33697;BME280;20031;43.416;23.232;2023-05-21T00:45:05;99936.78;;;15.05;85.27
33697;BME280;20031;43.416;23.232;2023-05-21T00:47:31;99939.41;;;15.05;85.16
33697;BME280;20031;43.416;23.232;2023-05-21T00:49:57;99936.00;;;15.05;85.34
33697;BME280;20031;43.416;23.232;2023-05-21T00:52:23;99937.16;;;15.02;85.29
33697;BME280;20031;43.416;23.232;2023-05-21T00:54:51;99934.94;;;14.99;85.29
33697;BME280;20031;43.416;23.232;2023-05-21T00:57:18;99930.06;;;14.96;85.18
33697;BME280;20031;43.416;23.232;2023-05-21T00:59:50;99936.88;;;14.91;84.71
33697;BME280;20031;43.416;23.232;2023-05-21T01:02:15;99936.00;;;14.84;85.05
33697;BME280;20031;43.416;23.232;2023-05-21T01:04:43;99930.34;;;14.80;85.24
33697;BME280;20031;43.416;23.232;2023-05-21T01:07:09;99930.72;;;14.78;84.92
33697;BME280;20031;43.416;23.232;2023-05-21T01:09:34;99934.50;;;14.75;85.36
33697;BME280;20031;43.416;23.232;2023-05-21T01:12:00;99935.66;;;14.66;84.81
33697;BME280;20031;43.416;23.232;2023-05-21T01:14:25;99943.06;;;14.63;85.36
33697;BME280;20031;43.416;23.232;2023-05-21T01:16:51;99940.63;;;14.61;85.29
33697;BME280;20031;43.416;23.232;2023-05-21T01:19:19;99942.06;;;14.64;85.77
33697;BME280;20031;43.416;23.232;2023-05-21T01:21:49;99943.50;;;14.66;85.43
33697;BME280;20031;43.416;23.232;2023-05-21T01:24:15;99938.63;;;14.63;85.20
33697;BME280;20031;43.416;23.232;2023-05-21T01:26:41;99940.44;;;14.63;85.40
33697;BME280;20031;43.416;23.232;2023-05-21T01:29:08;99938.81;;;14.62;85.45
33697;BME280;20031;43.416;23.232;2023-05-21T01:34:34;99934.13;;;14.57;85.51
33697;BME280;20031;43.416;23.232;2023-05-21T01:37:13;99935.69;;;14.52;85.53
33697;BME280;20031;43.416;23.232;2023-05-21T01:39:43;99932.81;;;14.47;85.65
33697;BME280;20031;43.416;23.232;2023-05-21T01:42:10;99943.06;;;14.42;85.62
33697;BME280;20031;43.416;23.232;2023-05-21T01:44:36;99941.16;;;14.36;85.40
33697;BME280;20031;43.416;23.232;2023-05-21T01:47:02;99937.13;;;14.33;85.90
33697;BME280;20031;43.416;23.232;2023-05-21T01:49:29;99943.34;;;14.32;85.58
33697;BME280;20031;43.416;23.232;2023-05-21T01:51:55;99935.84;;;14.29;85.77
33697;BME280;20031;43.416;23.232;2023-05-21T01:54:20;99930.16;;;14.26;86.10
33697;BME280;20031;43.416;23.232;2023-05-21T01:56:47;99941.84;;;14.24;85.81
33697;BME280;20031;43.416;23.232;2023-05-21T01:59:13;99940.28;;;14.15;85.74
33697;BME280;20031;43.416;23.232;2023-05-21T02:01:39;99942.03;;;14.08;85.52
33697;BME280;20031;43.416;23.232;2023-05-21T02:04:04;99950.34;;;13.97;85.25
33697;BME280;20031;43.416;23.232;2023-05-21T02:06:30;99949.88;;;13.93;85.61
33697;BME280;20031;43.416;23.232;2023-05-21T02:08:56;99942.56;;;13.89;85.46
33697;BME280;20031;43.416;23.232;2023-05-21T02:11:22;99941.75;;;13.88;86.11
33697;BME280;20031;43.416;23.232;2023-05-21T02:13:47;99947.00;;;13.88;85.83
33697;BME280;20031;43.416;23.232;2023-05-21T02:16:13;99943.41;;;13.89;85.88
33697;BME280;20031;43.416;23.232;2023-05-21T02:18:40;99943.66;;;13.94;86.30
33697;BME280;20031;43.416;23.232;2023-05-21T02:21:09;99947.91;;;13.95;86.13
33697;BME280;20031;43.416;23.232;2023-05-21T02:23:38;99939.69;;;13.98;86.39
33697;BME280;20031;43.416;23.232;2023-05-21T02:26:03;99945.09;;;13.97;86.87
33697;BME280;20031;43.416;23.232;2023-05-21T02:28:29;99938.66;;;13.99;86.48
33697;BME280;20031;43.416;23.232;2023-05-21T02:30:55;99938.66;;;13.99;86.27
33697;BME280;20031;43.416;23.232;2023-05-21T02:33:21;99937.06;;;13.98;85.95
33697;BME280;20031;43.416;23.232;2023-05-21T02:35:47;99932.38;;;13.94;86.07
33697;BME280;20031;43.416;23.232;2023-05-21T02:38:13;99940.66;;;13.97;86.49
33697;BME280;20031;43.416;23.232;2023-05-21T02:40:38;99937.06;;;13.98;86.11
33697;BME280;20031;43.416;23.232;2023-05-21T02:43:04;99933.00;;;13.96;86.01
33697;BME280;20031;43.416;23.232;2023-05-21T02:45:29;99928.91;;;13.93;85.91
33697;BME280;20031;43.416;23.232;2023-05-21T02:47:55;99930.94;;;13.91;85.72
33697;BME280;20031;43.416;23.232;2023-05-21T02:50:20;99929.66;;;13.87;85.86
33697;BME280;20031;43.416;23.232;2023-05-21T02:52:47;99928.22;;;13.85;85.65
33697;BME280;20031;43.416;23.232;2023-05-21T02:55:12;99928.75;;;13.80;85.48
33697;BME280;20031;43.416;23.232;2023-05-21T02:57:38;99926.97;;;13.81;85.47
33697;BME280;20031;43.416;23.232;2023-05-21T03:00:04;99928.75;;;13.80;85.56
33697;BME280;20031;43.416;23.232;2023-05-21T03:02:33;99935.25;;;13.84;85.60
33697;BME280;20031;43.416;23.232;2023-05-21T03:04:59;99933.25;;;13.86;85.28
33697;BME280;20031;43.416;23.232;2023-05-21T03:07:25;99936.91;;;13.85;85.11
33697;BME280;20031;43.416;23.232;2023-05-21T03:09:50;99945.91;;;13.83;85.22
33697;BME280;20031;43.416;23.232;2023-05-21T03:12:16;99941.84;;;13.80;85.22
33697;BME280;20031;43.416;23.232;2023-05-21T03:14:41;99936.38;;;13.76;84.93
33697;BME280;20031;43.416;23.232;2023-05-21T03:17:08;99943.94;;;13.71;84.81
33697;BME280;20031;43.416;23.232;2023-05-21T03:19:39;99945.28;;;13.67;84.72
33697;BME280;20031;43.416;23.232;2023-05-21T03:22:05;99943.31;;;13.69;85.22
33697;BME280;20031;43.416;23.232;2023-05-21T03:24:31;99939.06;;;13.68;85.07
33697;BME280;20031;43.416;23.232;2023-05-21T03:26:57;99939.25;;;13.66;85.37
33697;BME280;20031;43.416;23.232;2023-05-21T03:29:23;99946.28;;;13.66;84.99
33697;BME280;20031;43.416;23.232;2023-05-21T03:31:50;99948.06;;;13.65;85.09
33697;BME280;20031;43.416;23.232;2023-05-21T03:34:16;99944.66;;;13.65;85.49
33697;BME280;20031;43.416;23.232;2023-05-21T03:36:44;99946.84;;;13.61;84.99
33697;BME280;20031;43.416;23.232;2023-05-21T03:39:10;99946.19;;;13.59;85.34
33697;BME280;20031;43.416;23.232;2023-05-21T03:41:35;99957.47;;;13.60;85.20
33697;BME280;20031;43.416;23.232;2023-05-21T03:44:01;99949.44;;;13.61;85.35
33697;BME280;20031;43.416;23.232;2023-05-21T03:46:26;99956.09;;;13.64;85.22
33697;BME280;20031;43.416;23.232;2023-05-21T03:48:52;99954.75;;;13.68;84.99
33697;BME280;20031;43.416;23.232;2023-05-21T03:51:18;99952.25;;;13.74;85.20
33697;BME280;20031;43.416;23.232;2023-05-21T03:53:44;99944.03;;;13.77;85.22
33697;BME280;20031;43.416;23.232;2023-05-21T03:56:10;99947.91;;;13.81;85.21
33697;BME280;20031;43.416;23.232;2023-05-21T03:58:35;99948.97;;;13.86;85.71
33697;BME280;20031;43.416;23.232;2023-05-21T04:01:01;99943.28;;;13.97;85.65
33697;BME280;20031;43.416;23.232;2023-05-21T04:03:27;99951.34;;;14.10;85.47
33697;BME280;20031;43.416;23.232;2023-05-21T04:05:53;99950.75;;;14.29;85.33
33697;BME280;20031;43.416;23.232;2023-05-21T04:08:18;99936.41;;;14.46;85.53
33697;BME280;20031;43.416;23.232;2023-05-21T04:10:44;99932.91;;;14.53;84.75
33697;BME280;20031;43.416;23.232;2023-05-21T04:13:09;99936.63;;;14.65;84.95
33697;BME280;20031;43.416;23.232;2023-05-21T04:15:34;99931.81;;;14.69;84.38
33697;BME280;20031;43.416;23.232;2023-05-21T04:18:00;99936.75;;;14.78;84.03
33697;BME280;20031;43.416;23.232;2023-05-21T04:20:25;99930.19;;;14.88;84.45
33697;BME280;20031;43.416;23.232;2023-05-21T04:22:51;99926.06;;;15.00;83.92
33697;BME280;20031;43.416;23.232;2023-05-21T04:25:16;99933.16;;;15.06;83.45
33697;BME280;20031;43.416;23.232;2023-05-21T04:27:42;99939.00;;;15.02;82.54
33697;BME280;20031;43.416;23.232;2023-05-21T04:30:11;99944.16;;;14.95;81.96
33697;BME280;20031;43.416;23.232;2023-05-21T04:32:37;99945.19;;;14.94;82.24
33697;BME280;20031;43.416;23.232;2023-05-21T04:35:03;99947.63;;;14.96;82.16
33697;BME280;20031;43.416;23.232;2023-05-21T04:37:29;99940.81;;;15.01;82.29
33697;BME280;20031;43.416;23.232;2023-05-21T04:39:56;99944.63;;;14.99;82.58
33697;BME280;20031;43.416;23.232;2023-05-21T04:42:22;99943.84;;;15.05;82.80
33697;BME280;20031;43.416;23.232;2023-05-21T04:44:50;99945.91;;;15.09;82.07
33697;BME280;20031;43.416;23.232;2023-05-21T04:47:16;99945.63;;;15.19;81.93
33697;BME280;20031;43.416;23.232;2023-05-21T04:49:45;99945.66;;;15.25;81.36
33697;BME280;20031;43.416;23.232;2023-05-21T04:52:11;99937.22;;;15.30;81.32
33697;BME280;20031;43.416;23.232;2023-05-21T04:54:37;99940.97;;;15.48;81.33
33697;BME280;20031;43.416;23.232;2023-05-21T04:57:06;99940.50;;;15.65;80.65
33697;BME280;20031;43.416;23.232;2023-05-21T04:59:32;99943.38;;;15.77;79.98
33697;BME280;20031;43.416;23.232;2023-05-21T05:01:57;99936.72;;;15.81;79.15
33697;BME280;20031;43.416;23.232;2023-05-21T05:04:23;99930.72;;;15.93;78.32
33697;BME280;20031;43.416;23.232;2023-05-21T05:06:48;99926.56;;;16.05;78.04
33697;BME280;20031;43.416;23.232;2023-05-21T05:09:14;99933.44;;;16.12;77.21
33697;BME280;20031;43.416;23.232;2023-05-21T05:11:40;99931.22;;;16.16;76.39
33697;BME280;20031;43.416;23.232;2023-05-21T05:14:05;99929.69;;;16.28;77.03
33697;BME280;20031;43.416;23.232;2023-05-21T05:16:31;99929.78;;;16.73;77.02
33697;BME280;20031;43.416;23.232;2023-05-21T05:18:59;99934.06;;;17.12;76.03
33697;BME280;20031;43.416;23.232;2023-05-21T05:21:25;99932.66;;;17.29;74.57
33697;BME280;20031;43.416;23.232;2023-05-21T05:23:50;99932.00;;;17.66;74.66
33697;BME280;20031;43.416;23.232;2023-05-21T05:26:16;99932.97;;;17.90;72.86
33697;BME280;20031;43.416;23.232;2023-05-21T05:28:41;99934.81;;;17.84;71.80
33697;BME280;20031;43.416;23.232;2023-05-21T05:31:07;99939.81;;;17.98;71.24
33697;BME280;20031;43.416;23.232;2023-05-21T05:33:33;99944.25;;;18.04;70.96
33697;BME280;20031;43.416;23.232;2023-05-21T05:35:58;99940.97;;;18.21;70.72
33697;BME280;20031;43.416;23.232;2023-05-21T05:38:24;99934.88;;;18.21;69.89
33697;BME280;20031;43.416;23.232;2023-05-21T05:40:50;99926.81;;;18.16;70.08
33697;BME280;20031;43.416;23.232;2023-05-21T05:43:15;99931.25;;;18.15;69.88
33697;BME280;20031;43.416;23.232;2023-05-21T05:45:41;99934.06;;;18.14;70.66
33697;BME280;20031;43.416;23.232;2023-05-21T05:48:06;99928.69;;;18.40;70.92
33697;BME280;20031;43.416;23.232;2023-05-21T05:50:32;99935.63;;;18.71;70.06
33697;BME280;20031;43.416;23.232;2023-05-21T05:52:57;99925.63;;;18.80;69.23
33697;BME280;20031;43.416;23.232;2023-05-21T05:55:22;99923.47;;;18.94;68.29
33697;BME280;20031;43.416;23.232;2023-05-21T05:57:49;99919.00;;;18.95;68.00
33697;BME280;20031;43.416;23.232;2023-05-21T06:00:15;99917.06;;;18.84;67.93
33697;BME280;20031;43.416;23.232;2023-05-21T06:02:41;99917.28;;;18.83;68.02
33697;BME280;20031;43.416;23.232;2023-05-21T06:05:07;99926.78;;;18.84;68.54
33697;BME280;20031;43.416;23.232;2023-05-21T06:07:34;99929.38;;;18.66;68.37
33697;BME280;20031;43.416;23.232;2023-05-21T06:09:59;99926.88;;;18.71;69.25
33697;BME280;20031;43.416;23.232;2023-05-21T06:12:25;99919.63;;;18.91;69.21
33697;BME280;20031;43.416;23.232;2023-05-21T06:14:50;99917.34;;;19.25;68.91
33697;BME280;20031;43.416;23.232;2023-05-21T06:17:16;99923.66;;;19.48;67.54
33697;BME280;20031;43.416;23.232;2023-05-21T06:19:41;99921.97;;;19.71;67.45
33697;BME280;20031;43.416;23.232;2023-05-21T06:22:09;99919.41;;;19.65;66.74
33697;BME280;20031;43.416;23.232;2023-05-21T06:24:34;99919.56;;;19.52;66.54
33697;BME280;20031;43.416;23.232;2023-05-21T06:27:00;99912.63;;;19.51;66.91
33697;BME280;20031;43.416;23.232;2023-05-21T06:29:26;99912.91;;;19.43;66.68
33697;BME280;20031;43.416;23.232;2023-05-21T06:31:51;99910.50;;;19.42;67.44
33697;BME280;20031;43.416;23.232;2023-05-21T06:34:17;99912.91;;;19.43;67.13
33697;BME280;20031;43.416;23.232;2023-05-21T06:36:42;99897.13;;;19.54;67.28
33697;BME280;20031;43.416;23.232;2023-05-21T06:39:08;99899.22;;;19.70;66.68
33697;BME280;20031;43.416;23.232;2023-05-21T06:41:33;99896.66;;;19.82;66.48
33697;BME280;20031;43.416;23.232;2023-05-21T06:43:59;99892.84;;;19.96;66.24
33697;BME280;20031;43.416;23.232;2023-05-21T06:46:24;99900.94;;;20.00;65.94
33697;BME280;20031;43.416;23.232;2023-05-21T06:48:50;99902.38;;;20.14;65.48
33697;BME280;20031;43.416;23.232;2023-05-21T06:51:15;99899.97;;;20.13;65.43
33697;BME280;20031;43.416;23.232;2023-05-21T06:53:40;99907.69;;;20.55;66.03
33697;BME280;20031;43.416;23.232;2023-05-21T06:56:06;99900.56;;;20.85;64.56
33697;BME280;20031;43.416;23.232;2023-05-21T06:58:32;99895.72;;;20.93;64.07
33697;BME280;20031;43.416;23.232;2023-05-21T07:00:58;99895.66;;;21.00;64.34
33697;BME280;20031;43.416;23.232;2023-05-21T07:03:23;99902.81;;;21.22;64.21
33697;BME280;20031;43.416;23.232;2023-05-21T07:05:49;99896.34;;;21.18;63.91
33697;BME280;20031;43.416;23.232;2023-05-21T07:08:14;99903.69;;;21.16;63.74
33697;BME280;20031;43.416;23.232;2023-05-21T07:10:40;99903.00;;;21.09;63.76
33697;BME280;20031;43.416;23.232;2023-05-21T07:13:06;99903.22;;;20.96;63.50
33697;BME280;20031;43.416;23.232;2023-05-21T07:15:32;99901.00;;;20.82;64.34
33697;BME280;20031;43.416;23.232;2023-05-21T07:17:57;99903.78;;;20.75;64.13
33697;BME280;20031;43.416;23.232;2023-05-21T07:20:22;99899.94;;;21.12;63.84
33697;BME280;20031;43.416;23.232;2023-05-21T07:22:48;99906.59;;;21.37;62.64
33697;BME280;20031;43.416;23.232;2023-05-21T07:25:13;99897.59;;;21.38;62.04
33697;BME280;20031;43.416;23.232;2023-05-21T07:27:39;99896.69;;;21.44;62.29
33697;BME280;20031;43.416;23.232;2023-05-21T07:30:05;99896.91;;;21.77;62.01
33697;BME280;20031;43.416;23.232;2023-05-21T07:32:30;99893.28;;;22.05;61.79
33697;BME280;20031;43.416;23.232;2023-05-21T07:34:58;99892.63;;;22.26;60.83
33697;BME280;20031;43.416;23.232;2023-05-21T07:37:26;99892.72;;;22.31;60.04
33697;BME280;20031;43.416;23.232;2023-05-21T07:39:52;99896.84;;;22.39;59.47
33697;BME280;20031;43.416;23.232;2023-05-21T07:42:18;99897.38;;;22.24;58.02
33697;BME280;20031;43.416;23.232;2023-05-21T07:44:43;99896.59;;;22.24;56.48
33697;BME280;20031;43.416;23.232;2023-05-21T07:47:09;99895.25;;;21.99;56.79
33697;BME280;20031;43.416;23.232;2023-05-21T07:49:34;99892.19;;;22.06;57.36
33697;BME280;20031;43.416;23.232;2023-05-21T07:52:00;99886.00;;;22.40;57.79
33697;BME280;20031;43.416;23.232;2023-05-21T07:54:26;99887.19;;;22.77;55.81
33697;BME280;20031;43.416;23.232;2023-05-21T07:56:52;99877.69;;;22.81;55.43
33697;BME280;20031;43.416;23.232;2023-05-21T07:59:17;99885.19;;;23.00;55.30
33697;BME280;20031;43.416;23.232;2023-05-21T08:01:42;99878.31;;;23.37;54.87
33697;BME280;20031;43.416;23.232;2023-05-21T08:04:08;99876.00;;;23.61;54.12
33697;BME280;20031;43.416;23.232;2023-05-21T08:06:34;99869.13;;;23.82;53.30
33697;BME280;20031;43.416;23.232;2023-05-21T08:09:01;99873.88;;;24.01;52.67
33697;BME280;20031;43.416;23.232;2023-05-21T08:11:27;99862.19;;;23.81;51.81
33697;BME280;20031;43.416;23.232;2023-05-21T08:13:53;99861.88;;;23.40;52.33
33697;BME280;20031;43.416;23.232;2023-05-21T08:16:18;99865.41;;;23.08;53.16
33697;BME280;20031;43.416;23.232;2023-05-21T08:18:45;99866.75;;;22.94;53.70
33697;BME280;20031;43.416;23.232;2023-05-21T08:21:10;99862.53;;;22.81;53.65
33697;BME280;20031;43.416;23.232;2023-05-21T08:23:36;99863.44;;;22.87;53.86
33697;BME280;20031;43.416;23.232;2023-05-21T08:26:02;99862.16;;;22.89;53.83
33697;BME280;20031;43.416;23.232;2023-05-21T08:28:29;99860.09;;;23.08;54.01
33697;BME280;20031;43.416;23.232;2023-05-21T08:30:54;99859.06;;;23.30;53.92
33697;BME280;20031;43.416;23.232;2023-05-21T08:33:20;99857.34;;;23.19;53.02
33697;BME280;20031;43.416;23.232;2023-05-21T08:35:45;99857.69;;;23.06;53.31
33697;BME280;20031;43.416;23.232;2023-05-21T08:38:11;99863.38;;;23.14;53.20
33697;BME280;20031;43.416;23.232;2023-05-21T08:40:36;99866.03;;;22.98;52.93
33697;BME280;20031;43.416;23.232;2023-05-21T08:43:02;99860.41;;;23.11;53.47
33697;BME280;20031;43.416;23.232;2023-05-21T08:45:33;99855.16;;;23.54;53.38
33697;BME280;20031;43.416;23.232;2023-05-21T08:48:01;99853.47;;;23.85;52.33
33697;BME280;20031;43.416;23.232;2023-05-21T08:50:28;99852.84;;;24.00;51.25
33697;BME280;20031;43.416;23.232;2023-05-21T08:52:55;99853.84;;;24.20;50.76
33697;BME280;20031;43.416;23.232;2023-05-21T08:55:23;99848.84;;;24.50;50.37
33697;BME280;20031;43.416;23.232;2023-05-21T08:57:49;99846.41;;;24.74;49.25
33697;BME280;20031;43.416;23.232;2023-05-21T09:00:15;99842.50;;;25.18;49.31
33697;BME280;20031;43.416;23.232;2023-05-21T09:02:40;99841.09;;;25.52;47.85
33697;BME280;20031;43.416;23.232;2023-05-21T09:05:08;99838.09;;;25.89;47.10
33697;BME280;20031;43.416;23.232;2023-05-21T09:07:52;99837.03;;;26.00;46.59
33697;BME280;20031;43.416;23.232;2023-05-21T09:10:23;99836.00;;;26.11;46.19
33697;BME280;20031;43.416;23.232;2023-05-21T09:12:51;99833.63;;;26.20;45.67
33697;BME280;20031;43.416;23.232;2023-05-21T09:15:17;99830.34;;;25.88;45.83
33697;BME280;20031;43.416;23.232;2023-05-21T09:17:45;99833.53;;;25.95;46.53
33697;BME280;20031;43.416;23.232;2023-05-21T09:20:13;99828.25;;;26.10;45.86
33697;BME280;20031;43.416;23.232;2023-05-21T09:22:44;99836.81;;;26.07;45.93
33697;BME280;20031;43.416;23.232;2023-05-21T09:25:11;99832.09;;;26.38;45.45
33697;BME280;20031;43.416;23.232;2023-05-21T09:27:37;99827.28;;;26.65;45.29
33697;BME280;20031;43.416;23.232;2023-05-21T09:30:08;99821.13;;;26.89;45.62
33697;BME280;20031;43.416;23.232;2023-05-21T09:32:33;99828.63;;;26.92;45.27
33697;BME280;20031;43.416;23.232;2023-05-21T09:35:10;99817.09;;;27.22;44.26
33697;BME280;20031;43.416;23.232;2023-05-21T09:37:39;99827.72;;;27.61;43.51
33697;BME280;20031;43.416;23.232;2023-05-21T09:40:17;99825.88;;;27.57;42.88
33697;BME280;20031;43.416;23.232;2023-05-21T09:42:51;99813.53;;;27.46;42.77
33697;BME280;20031;43.416;23.232;2023-05-21T09:45:25;99807.63;;;27.64;42.42
33697;BME280;20031;43.416;23.232;2023-05-21T09:47:51;99809.28;;;28.08;42.84
33697;BME280;20031;43.416;23.232;2023-05-21T09:50:18;99805.69;;;28.27;41.21
33697;BME280;20031;43.416;23.232;2023-05-21T09:52:45;99805.94;;;28.31;41.30
33697;BME280;20031;43.416;23.232;2023-05-21T09:55:11;99805.38;;;28.33;41.65
33697;BME280;20031;43.416;23.232;2023-05-21T09:57:56;99801.22;;;28.18;41.65
33697;BME280;20031;43.416;23.232;2023-05-21T10:00:29;99798.56;;;28.08;41.97
33697;BME280;20031;43.416;23.232;2023-05-21T10:02:59;99801.38;;;27.83;41.32
33697;BME280;20031;43.416;23.232;2023-05-21T10:05:28;99795.03;;;27.64;41.31
33697;BME280;20031;43.416;23.232;2023-05-21T10:08:02;99799.69;;;27.34;42.26
33697;BME280;20031;43.416;23.232;2023-05-21T10:10:29;99799.13;;;27.37;42.54
33697;BME280;20031;43.416;23.232;2023-05-21T10:13:03;99793.94;;;27.70;42.56
33697;BME280;20031;43.416;23.232;2023-05-21T10:15:32;99796.16;;;28.06;42.37
33697;BME280;20031;43.416;23.232;2023-05-21T10:18:00;99798.47;;;28.23;41.32
33697;BME280;20031;43.416;23.232;2023-05-21T10:20:26;99781.69;;;28.45;40.23
33697;BME280;20031;43.416;23.232;2023-05-21T10:22:52;99782.72;;;28.54;39.00
33697;BME280;20031;43.416;23.232;2023-05-21T10:25:17;99788.72;;;28.41;39.52
33697;BME280;20031;43.416;23.232;2023-05-21T10:27:44;99791.41;;;28.41;39.68
33697;BME280;20031;43.416;23.232;2023-05-21T10:30:11;99776.69;;;28.34;37.27
33697;BME280;20031;43.416;23.232;2023-05-21T10:32:38;99776.59;;;28.11;36.50
33697;BME280;20031;43.416;23.232;2023-05-21T10:35:06;99769.34;;;28.11;36.96
33697;BME280;20031;43.416;23.232;2023-05-21T10:37:33;99773.50;;;28.32;37.52
33697;BME280;20031;43.416;23.232;2023-05-21T10:39:59;99782.59;;;28.36;36.59
33697;BME280;20031;43.416;23.232;2023-05-21T10:50:54;99769.97;;;28.98;36.18
33697;BME280;20031;43.416;23.232;2023-05-21T10:56:38;99761.13;;;29.26;34.26
33697;BME280;20031;43.416;23.232;2023-05-21T10:59:46;99763.25;;;29.47;34.44
33697;BME280;20031;43.416;23.232;2023-05-21T11:02:13;99760.38;;;29.43;35.05
33697;BME280;20031;43.416;23.232;2023-05-21T11:04:40;99761.78;;;29.59;34.45
33697;BME280;20031;43.416;23.232;2023-05-21T11:07:10;99753.28;;;29.29;34.81
33697;BME280;20031;43.416;23.232;2023-05-21T11:09:37;99752.66;;;29.37;35.05
33697;BME280;20031;43.416;23.232;2023-05-21T11:12:02;99753.81;;;29.31;35.43
33697;BME280;20031;43.416;23.232;2023-05-21T11:19:40;99739.06;;;29.52;36.42
33697;BME280;20031;43.416;23.232;2023-05-21T11:22:06;99751.53;;;29.61;35.64
33697;BME280;20031;43.416;23.232;2023-05-21T11:24:36;99736.50;;;29.79;35.12
33697;BME280;20031;43.416;23.232;2023-05-21T11:27:03;99735.72;;;29.78;36.66
33697;BME280;20031;43.416;23.232;2023-05-21T11:29:40;99737.91;;;29.76;36.61
33697;BME280;20031;43.416;23.232;2023-05-21T11:32:07;99731.69;;;29.39;36.22
33697;BME280;20031;43.416;23.232;2023-05-21T11:34:46;99740.44;;;29.26;38.14
33697;BME280;20031;43.416;23.232;2023-05-21T11:39:55;99725.81;;;29.14;38.20
33697;BME280;20031;43.416;23.232;2023-05-21T11:42:27;99733.44;;;29.02;36.58
33697;BME280;20031;43.416;23.232;2023-05-21T11:44:55;99733.44;;;28.45;37.94
33697;BME280;20031;43.416;23.232;2023-05-21T11:47:22;99731.03;;;28.44;40.13
33697;BME280;20031;43.416;23.232;2023-05-21T11:49:48;99732.88;;;28.82;38.61
33697;BME280;20031;43.416;23.232;2023-05-21T11:52:14;99722.03;;;28.91;38.08
33697;BME280;20031;43.416;23.232;2023-05-21T11:54:47;99729.13;;;28.49;38.03
33697;BME280;20031;43.416;23.232;2023-05-21T11:57:15;99723.56;;;28.74;37.73
33697;BME280;20031;43.416;23.232;2023-05-21T11:59:45;99722.13;;;28.82;38.22
33697;BME280;20031;43.416;23.232;2023-05-21T12:02:15;99727.84;;;28.98;37.85
33697;BME280;20031;43.416;23.232;2023-05-21T12:04:41;99719.22;;;29.25;36.52
33697;BME280;20031;43.416;23.232;2023-05-21T12:07:10;99719.56;;;29.41;36.03
33697;BME280;20031;43.416;23.232;2023-05-21T12:09:41;99716.75;;;29.05;37.41
33697;BME280;20031;43.416;23.232;2023-05-21T12:12:07;99715.91;;;28.58;37.86
33697;BME280;20031;43.416;23.232;2023-05-21T12:14:34;99706.00;;;27.87;37.63
33697;BME280;20031;43.416;23.232;2023-05-21T12:17:02;99702.53;;;27.86;37.71
33697;BME280;20031;43.416;23.232;2023-05-21T12:19:30;99694.41;;;28.34;38.71
33697;BME280;20031;43.416;23.232;2023-05-21T12:21:56;99695.44;;;28.67;36.31
33697;BME280;20031;43.416;23.232;2023-05-21T12:24:23;99697.81;;;28.73;37.10
33697;BME280;20031;43.416;23.232;2023-05-21T12:26:49;99688.34;;;28.81;36.39
33697;BME280;20031;43.416;23.232;2023-05-21T12:29:16;99688.34;;;29.04;36.84
33697;BME280;20031;43.416;23.232;2023-05-21T12:31:48;99681.63;;;29.30;36.71
33697;BME280;20031;43.416;23.232;2023-05-21T12:34:14;99680.97;;;29.56;37.93
33697;BME280;20031;43.416;23.232;2023-05-21T12:36:43;99679.31;;;29.41;37.30
33697;BME280;20031;43.416;23.232;2023-05-21T12:39:14;99683.28;;;29.26;37.79
33697;BME280;20031;43.416;23.232;2023-05-21T12:41:40;99672.13;;;29.14;35.74
33697;BME280;20031;43.416;23.232;2023-05-21T12:44:05;99673.66;;;28.50;37.20
33697;BME280;20031;43.416;23.232;2023-05-21T12:46:33;99657.88;;;28.72;37.18
33697;BME280;20031;43.416;23.232;2023-05-21T12:48:58;99658.31;;;29.02;37.08
33697;BME280;20031;43.416;23.232;2023-05-21T12:51:24;99677.28;;;28.87;38.76
33697;BME280;20031;43.416;23.232;2023-05-21T12:53:50;99674.38;;;28.83;37.75
33697;BME280;20031;43.416;23.232;2023-05-21T12:56:15;99670.53;;;29.13;36.91
33697;BME280;20031;43.416;23.232;2023-05-21T12:58:41;99657.38;;;28.93;34.36
33697;BME280;20031;43.416;23.232;2023-05-21T13:01:08;99660.69;;;28.57;36.23
33697;BME280;20031;43.416;23.232;2023-05-21T13:03:34;99664.50;;;28.79;36.47
33697;BME280;20031;43.416;23.232;2023-05-21T13:06:01;99664.38;;;28.89;34.91
33697;BME280;20031;43.416;23.232;2023-05-21T13:08:26;99658.50;;;29.34;32.34
33697;BME280;20031;43.416;23.232;2023-05-21T13:10:52;99655.09;;;29.65;32.64